ADDS METAR Data INFO
IDs: Format: Raw Decoded Include TAF

Data at: 2114 UTC 22 Oct 2017

KVTI 222055Z AUTO 00000KT 10SM CLR 15/07 A3004 RMK AO2 T01460069
KVTI 222035Z AUTO 00000KT 10SM CLR 15/07 A3004 RMK AO2 T01460070
KVTI 222015Z AUTO 00000KT 10SM CLR 15/07 A3005 RMK AO2 T01460074
KVTI 221955Z AUTO 31003KT 10SM CLR 14/07 A3005 RMK AO2 T01390072
KVTI 221935Z AUTO 29004KT 10SM CLR 14/07 A3006 RMK AO2 T01350073
KVTI 221915Z AUTO 31003KT 10SM CLR 13/08 A3005 RMK AO2 T01320075
KVTI 221855Z AUTO 00000KT 10SM CLR 13/08 A3005 RMK AO2 T01320081
KVTI 221835Z AUTO 29004KT 10SM CLR 13/09 A3005 RMK AO2 T01320085
KVTI 221815Z AUTO 30006KT 10SM CLR 13/09 A3005 RMK AO2 T01320088
KVTI 221755Z AUTO 29005KT 10SM CLR 13/09 A3005 RMK AO2 T01320091 10132 20105
KVTI 221735Z AUTO 30006KT 10SM CLR 13/09 A3005 RMK AO2 T01320092
KVTI 221715Z AUTO 30007KT 10SM CLR 12/08 A3005 RMK AO2 T01200084
KVTI 221655Z AUTO 31004KT 10SM CLR 13/10 A3004 RMK AO2 T01320097
KVTI 221635Z AUTO 31005KT 10SM CLR 13/10 A3005 RMK AO2 T01320098
KVTI 221615Z AUTO 30003KT 10SM CLR 12/09 A3004 RMK AO2 T01220090
KVTI 221555Z AUTO 30004KT 10SM CLR 12/09 A3004 RMK AO2 T01180090
KVTI 221535Z AUTO 35005KT 10SM CLR 12/09 A3003 RMK AO2 T01180092
KVTI 221515Z AUTO 28005KT 10SM CLR 11/09 A3003 RMK AO2 T01110090
KVTI 221455Z AUTO 30006KT 10SM SCT070 11/10 A3002 RMK AO2 T01110095
KVTI 221435Z AUTO 30007KT 10SM SCT060 11/10 A3002 RMK AO2 T01050095
KVTI 221415Z AUTO 31003KT 10SM BKN060 11/10 A3000 RMK AO2 T01050095
KVTI 221355Z AUTO 00000KT 10SM SCT060 11/10 A3000 RMK AO2 T01050096
KVTI 221335Z AUTO 32003KT 10SM SCT060 11/10 A3000 RMK AO2 T01050098
KVTI 221315Z AUTO 31004KT 10SM CLR 11/10 A2999 RMK AO2 T01050101
KVTI 221255Z AUTO 30005KT 10SM DZ SCT009 11/10 A2998 RMK AO2 T01050101
KVTI 221235Z AUTO 30006KT 10SM DZ SCT009 11/10 A2997 RMK AO2 T01050102
KVTI 221215Z AUTO 00000KT 10SM -DZ CLR 11/10 A2996 RMK AO2 T01050102
KVTI 221155Z AUTO 00000KT 10SM DZ CLR 11/10 A2996 RMK AO2 T01050102 10132 20105
KVTI 221135Z AUTO 00000KT 10SM RA SCT009 11/10 A2998 RMK AO2 T01050101
KVTI 221115Z AUTO 00000KT 10SM RA BKN009 BKN012 11/10 A2997 RMK AO2 T01050100
KVTI 221055Z AUTO 30004KT 7SM RA BKN009 OVC016 11/10 A2998 RMK AO2 T01050100
KVTI 221035Z AUTO 31004KT 7SM RA BKN009 OVC016 11/10 A2995 RMK AO2 T01050097
KVTI 221015Z AUTO 33004KT 10SM RA BKN007 BKN012 11/10 A2997 RMK AO2 T01090102
KVTI 220955Z AUTO 33004KT 10SM RA SCT009 SCT015 11/11 A2994 RMK AO2 T01110106
KVTI 220935Z AUTO 33004KT 10SM -RA SCT007 BKN011 BKN015 11/11 A2994 RMK AO2 T01110105
KVTI 220915Z AUTO 30004KT 10SM -RA BKN007 BKN011 BKN035 12/11 A2995 RMK AO2 T01180111
KVTI 220855Z AUTO 33005KT 10SM RA SCT007 BKN034 BKN046 12/11 A2994 RMK AO2 T01180106
KVTI 220835Z AUTO 34004KT 10SM -RA BKN032 12/11 A2994 RMK AO2 T01180110
KVTI 220815Z AUTO 32009KT 10SM -RA OVC032 12/11 A2992 RMK AO2 T01180112
KVTI 220755Z AUTO 30006KT 10SM RA SCT006 BKN032 OVC041 12/11 A2993 RMK AO2 T01180113
KVTI 220735Z AUTO 30008KT 10SM RA OVC007 12/11 A2991 RMK AO2 T01180111
KVTI 220715Z AUTO 29006KT 10SM -RA BKN005 BKN012 OVC032 13/13 A2991 RMK AO2 T01320126
KVTI 220655Z AUTO 30006KT 10SM -RA SCT005 SCT009 BKN030 13/12 A2992 RMK AO2 T01320121
KVTI 220635Z AUTO 30008KT 10SM RA SCT005 SCT009 SCT030 13/13 A2990 RMK AO2 T01320125
KVTI 220615Z AUTO 30007KT 10SM -RA SCT006 BKN010 BKN028 13/13 A2991 RMK AO2 T01320127
KVTI 220555Z AUTO 31008KT 7SM RA BKN008 BKN014 OVC023 13/12 A2991 RMK AO2 T01320120 10245 20132 402580132
KVTI 220535Z AUTO 28009KT 10SM RA SCT007 BKN018 OVC023 14/13 A2992 RMK AO2 T01400127
KVTI 220515Z AUTO 30011G21KT 10SM SCT009 OVC015 15/14 A2987 RMK AO2 T01460136
KVTI 220455Z AUTO 30017G23KT 10SM -RA BKN007 BKN011 BKN016 16/16 A2985 RMK AO2 T01600157
KVTI 220435Z AUTO 25005KT 10SM -RA SCT004 BKN009 16/16 A2986 RMK AO2 T01600156
KVTI 220415Z AUTO 17006KT 10SM -RA SCT006 BKN010 BKN025 16/16 A2987 RMK AO2 T01600156
KVTI 220355Z AUTO 22008G20KT 4SM RA BKN010 OVC016 16/15 A2986 RMK AO2 T01600150
KVTI 220335Z AUTO 21012G17KT 4SM +RA SCT008 OVC013 16/14 A2985 RMK AO2 T01640143
KVTI 220315Z AUTO 23008G18KT 2 1/2SM +RA SCT008 BKN014 OVC045 18/15 A2987 RMK AO2 VIS 1 1/2V5 T01750148
KVTI 220255Z AUTO 24011G17KT 190V250 10SM BKN046 23/16 A2984 RMK AO2 T02300160
KVTI 220235Z AUTO 18009G14KT 10SM SCT044 SCT060 24/16 A2981 RMK AO2 T02370161
KVTI 220215Z AUTO 16009G17KT 10SM SCT050 SCT060 24/16 A2979 RMK AO2 T02420164
KVTI 220155Z AUTO 16010G18KT 10SM SCT050 SCT055 25/17 A2979 RMK AO2 T02450165
KVTI 220135Z AUTO 16008G17KT 10SM SCT046 SCT050 25/17 A2979 RMK AO2 T02450165
KVTI 220115Z AUTO 16011G18KT 10SM SCT075 24/17 A2978 RMK AO2 T02440165
KVTI 220055Z AUTO 16008KT 140V200 10SM SCT075 24/17 A2979 RMK AO2 T02430166
KVTI 220035Z AUTO 16008KT 10SM CLR 25/17 A2979 RMK AO2 T02450169
KVTI 220015Z AUTO 16008G14KT 10SM CLR 25/17 A2980 RMK AO2 T02450170
KVTI 212355Z AUTO 16006KT 10SM CLR 25/17 A2981 RMK AO2 T02450168 10258 20245
KVTI 212335Z AUTO 16006KT 10SM CLR 25/17 A2981 RMK AO2 T02450170
KVTI 212315Z AUTO 16008KT 10SM CLR 25/17 A2981 RMK AO2 T02450171
KVTI 212255Z AUTO 16008KT 10SM CLR 25/17 A2980 RMK AO2 T02450170
KVTI 212235Z AUTO 15007KT 10SM CLR 25/17 A2980 RMK AO2 T02450169
KVTI 212215Z AUTO 16006KT 10SM CLR 25/16 A2980 RMK AO2 T02450160
KVTI 212155Z AUTO 18006KT 10SM SCT045 25/16 A2982 RMK AO2 T02450160
KVTI 212135Z AUTO 19005KT 10SM CLR 25/16 A2982 RMK AO2 T02450160
KVTI 212115Z AUTO 20008KT 10SM SCT042 SCT060 25/16 A2983 RMK AO2 T02450158
KVTI 212055Z AUTO 21005KT 10SM BKN040 BKN060 25/16 A2983 RMK AO2 T02450158
KVTI 212035Z AUTO 21012G17KT 10SM BKN042 25/15 A2982 RMK AO2 T02450152
KVTI 212015Z AUTO 20012G19KT 10SM SCT041 SCT047 25/15 A2982 RMK AO2 T02450150
KVTI 211955Z AUTO 20016G23KT 10SM SCT042 SCT048 25/16 A2981 RMK AO2 T02540156
KVTI 211935Z AUTO 19012G24KT 10SM SCT042 26/16 A2981 RMK AO2 T02580157
KVTI 211915Z AUTO 19017G22KT 10SM SCT038 SCT043 26/16 A2981 RMK AO2 T02580158
KVTI 211855Z AUTO 18013G21KT 10SM SCT038 SCT043 25/15 A2981 RMK AO2 T02450150
KVTI 211835Z AUTO 18013G21KT 10SM BKN038 25/15 A2981 RMK AO2 T02450147
KVTI 211815Z AUTO 19017G22KT 10SM SCT038 25/15 A2982 RMK AO2 T02450145
KVTI 211755Z AUTO 19016G21KT 10SM CLR 25/14 A2982 RMK AO2 T02450141 10245 20175
KVTI 211735Z AUTO 18017G24KT 10SM CLR 25/14 A2982 RMK AO2 T02450138
KVTI 211715Z AUTO 18014G26KT 10SM CLR 25/14 A2982 RMK AO2 T02450137
KVTI 211655Z AUTO 17016G23KT 10SM CLR 25/14 A2983 RMK AO2 T02450142
KVTI 211635Z AUTO 18016G23KT 10SM CLR 24/15 A2983 RMK AO2 T02440147
KVTI 211615Z AUTO 18016G22KT 10SM CLR 23/14 A2983 RMK AO2 T02300138
KVTI 211555Z AUTO 18011G25KT 10SM SCT026 22/13 A2984 RMK AO2 T02160132
KVTI 211535Z AUTO 17015G25KT 10SM OVC026 22/14 A2985 RMK AO2 T02160140
KVTI 211515Z AUTO 17014G18KT 10SM OVC026 20/13 A2986 RMK AO2 T02020132
KVTI 211455Z AUTO 18011G18KT 10SM OVC026 19/12 A2987 RMK AO2 T01880122
KVTI 211435Z AUTO 17013G17KT 140V200 10SM OVC026 19/12 A2987 RMK AO2 T01880123
KVTI 211415Z AUTO 16011G15KT 10SM OVC026 18/12 A2987 RMK AO2 T01810118
KVTI 211355Z AUTO 16011G18KT 10SM OVC026 18/12 A2987 RMK AO2 T01770115
KVTI 211335Z AUTO 17012G18KT 10SM BKN028 BKN040 18/12 A2987 RMK AO2 T01750115
KVTI 211315Z AUTO 17013G17KT 10SM OVC030 18/12 A2986 RMK AO2 T01750115
KVTI 211255Z AUTO 16013G17KT 10SM OVC030 18/12 A2985 RMK AO2 T01750115
KVTI 211235Z AUTO 16011G19KT 10SM OVC030 18/12 A2985 RMK AO2 T01750118
KVTI 211215Z AUTO 16012G20KT 10SM OVC032 18/12 A2985 RMK AO2 T01750115
KVTI 211155Z AUTO 16014G18KT 10SM OVC032 18/12 A2985 RMK AO2 T01750118 10175 20160
KVTI 211135Z AUTO 16010G17KT 10SM BKN032 17/11 A2985 RMK AO2 T01670113
KVTI 211115Z AUTO 15011G15KT 10SM OVC034 17/11 A2985 RMK AO2 T01670112
KVTI 211055Z AUTO 16010G14KT 10SM OVC036 17/11 A2985 RMK AO2 T01670112
KVTI 211035Z AUTO 16009KT 10SM SCT038 16/11 A2985 RMK AO2 T01610108
KVTI 211015Z AUTO 15010KT 10SM CLR 17/11 A2984 RMK AO2 T01670111
KVTI 210955Z AUTO 16009G14KT 10SM CLR 17/11 A2985 RMK AO2 T01650109
KVTI 210935Z AUTO 16011G16KT 10SM CLR 16/11 A2985 RMK AO2 T01640107
KVTI 210915Z AUTO 16009G16KT 10SM CLR 16/11 A2985 RMK AO2 T01610105